Time;durP1;ratioP1;P1;durP2;ratioP2;P2;SDS_P1;SDS_P2;PMS_P1;PMS_P2;Temp;Humidity;BMP_temperature;BMP_pressure;BME280_temperature;BME280_humidity;BME280_pressure;Samples;Min_cycle;Max_cycle;Signal;HPM_P1;HPM_P2
2022/12/21 00:01:13;;;;;;;6.17;3.33;;;;;;;8.27;100.00;101001.94;5136026;27;20084;-83
2022/12/21 00:03:40;;;;;;;6.35;3.55;;;;;;;8.27;100.00;100989.03;5135268;27;20413;-84
2022/12/21 00:06:05;;;;;;;4.77;2.90;;;;;;;8.26;100.00;100984.72;5135608;27;20484;-83
2022/12/21 00:08:44;;;;;;;5.43;3.13;;;;;;;8.26;100.00;100984.72;5136752;27;20110;-83
2022/12/21 00:11:11;;;;;;;5.45;3.03;;;;;;;8.25;100.00;100989.03;5134764;27;20106;-83
2022/12/21 00:13:37;;;;;;;5.53;3.05;;;;;;;8.24;100.00;100982.13;5122807;27;20464;-84
2022/12/21 00:16:05;;;;;;;6.30;3.50;;;;;;;8.26;100.00;100979.53;5115221;28;20023;-83
2022/12/21 00:18:32;;;;;;;6.80;3.55;;;;;;;8.26;100.00;100982.13;5114568;28;20076;-83
2022/12/21 00:21:06;;;;;;;8.27;4.10;;;;;;;8.28;100.00;100972.66;5115249;28;20123;-84
2022/12/21 00:23:33;;;;;;;7.28;3.85;;;;;;;8.26;100.00;100972.66;5122954;27;20070;-84
2022/12/21 00:25:59;;;;;;;7.88;4.15;;;;;;;8.27;100.00;100973.50;5134869;27;20106;-84
2022/12/21 00:28:25;;;;;;;8.40;4.10;;;;;;;8.26;100.00;100976.94;5135130;27;20019;-83
2022/12/21 00:30:51;;;;;;;7.57;3.90;;;;;;;8.25;100.00;100989.03;5135727;27;20029;-84
2022/12/21 00:33:16;;;;;;;9.02;4.45;;;;;;;8.23;100.00;100989.88;5134251;27;20424;-84
2022/12/21 00:35:49;;;;;;;8.07;4.30;;;;;;;8.22;100.00;100988.19;5135250;27;20455;-84
2022/12/21 00:38:15;;;;;;;6.85;3.40;;;;;;;8.19;100.00;101001.97;5134548;27;20091;-83
2022/12/21 00:40:41;;;;;;;6.40;3.60;;;;;;;8.17;100.00;100994.22;5131590;27;20458;-84
2022/12/21 00:43:06;;;;;;;6.57;3.57;;;;;;;8.17;100.00;100988.19;5114307;28;20071;-84
2022/12/21 00:45:31;;;;;;;8.88;4.15;;;;;;;8.16;100.00;100978.72;5114850;28;20072;-84
2022/12/21 00:47:57;;;;;;;8.60;4.47;;;;;;;8.16;100.00;100996.81;5113419;28;20032;-84
2022/12/21 00:50:22;;;;;;;9.73;4.50;;;;;;;8.15;100.00;100992.53;5114172;28;20464;-84
2022/12/21 00:52:47;;;;;;;7.83;4.30;;;;;;;8.15;100.00;100993.38;5115105;27;20035;-83
2022/12/21 00:55:13;;;;;;;9.10;4.30;;;;;;;8.16;100.00;100995.09;5133756;27;20038;-84
2022/12/21 00:57:38;;;;;;;9.63;4.50;;;;;;;8.17;100.00;100995.94;5134297;27;20034;-83
2022/12/21 01:00:04;;;;;;;10.47;4.57;;;;;;;8.15;100.00;101001.13;5134157;27;20114;-83
2022/12/21 01:02:29;;;;;;;8.97;4.33;;;;;;;8.17;100.00;101001.09;5134250;27;20064;-84
2022/12/21 01:04:54;;;;;;;11.32;5.00;;;;;;;8.17;100.00;101006.28;5134829;27;20034;-83
2022/12/21 01:07:20;;;;;;;10.43;4.85;;;;;;;8.15;100.00;101008.03;5132966;27;20030;-83
2022/12/21 01:09:45;;;;;;;10.30;4.70;;;;;;;8.14;100.00;101007.16;5134620;27;20023;-84
2022/12/21 01:12:10;;;;;;;9.87;4.60;;;;;;;8.14;100.00;101009.75;5134191;27;20468;-83
2022/12/21 01:14:35;;;;;;;9.18;4.43;;;;;;;8.14;100.00;101020.06;5133897;27;20022;-83
2022/12/21 01:17:01;;;;;;;8.97;4.27;;;;;;;8.12;100.00;101011.47;5134258;27;20080;-83
2022/12/21 01:19:26;;;;;;;9.10;4.35;;;;;;;8.10;100.00;101010.63;5134535;27;20110;-84
2022/12/21 01:21:51;;;;;;;6.87;3.60;;;;;;;8.07;100.00;101010.63;5134101;27;20023;-84
2022/12/21 01:24:17;;;;;;;6.78;3.50;;;;;;;8.04;100.00;101014.09;5120267;27;20028;-83
2022/12/21 01:26:42;;;;;;;7.83;3.80;;;;;;;8.03;100.00;101014.06;5113959;28;20488;-83
2022/12/21 01:29:12;;;;;;;8.10;4.00;;;;;;;8.02;100.00;101014.94;5112814;28;20398;-84
2022/12/21 01:31:46;;;;;;;7.68;4.10;;;;;;;8.01;100.00;101015.78;5113519;28;20102;-83
2022/12/21 01:34:11;;;;;;;8.10;4.10;;;;;;;8.00;100.00;101004.59;5113310;28;20016;-83
2022/12/21 01:36:37;;;;;;;8.73;4.20;;;;;;;7.97;100.00;101009.78;5112772;28;20122;-83
2022/12/21 01:39:02;;;;;;;8.00;3.85;;;;;;;7.98;100.00;101026.16;5113676;28;20030;-83
2022/12/21 01:41:29;;;;;;;8.55;4.30;;;;;;;7.98;100.00;101016.66;5113546;28;20028;-84
2022/12/21 01:44:00;;;;;;;7.78;4.03;;;;;;;7.98;100.00;101018.41;5112567;28;20118;-83
2022/12/21 01:46:41;;;;;;;9.95;4.38;;;;;;;7.98;100.00;101032.19;5113221;28;20462;-83
2022/12/21 01:49:33;;;;;;;8.68;4.13;;;;;;;7.97;100.00;101035.63;5113211;28;20076;-83
2022/12/21 01:52:06;;;;;;;8.32;4.20;;;;;;;7.97;100.00;101035.63;5124515;27;20042;-83
2022/12/21 01:54:35;;;;;;;8.40;3.90;;;;;;;7.96;100.00;101030.47;5127099;27;20035;-83
2022/12/21 01:57:04;;;;;;;9.52;4.32;;;;;;;7.96;100.00;101033.03;5112977;28;20028;-83
2022/12/21 01:59:34;;;;;;;9.02;4.43;;;;;;;7.95;100.00;101032.16;5113113;28;20030;-84
2022/12/21 02:02:03;;;;;;;9.85;4.55;;;;;;;7.94;100.00;101024.44;5113523;28;20028;-84
2022/12/21 02:04:29;;;;;;;8.98;4.55;;;;;;;7.95;100.00;101018.41;5112440;28;20387;-83
2022/12/21 02:06:56;;;;;;;10.07;4.67;;;;;;;7.96;100.00;101014.97;5113381;28;20032;-83
2022/12/21 02:09:25;;;;;;;9.50;4.57;;;;;;;7.94;100.00;101011.50;5113319;28;20704;-84
2022/12/21 02:12:02;;;;;;;8.60;4.35;;;;;;;7.89;100.00;101011.53;5111494;28;20035;-83
2022/12/21 02:14:31;;;;;;;8.13;4.13;;;;;;;7.85;100.00;101008.09;5113028;28;20035;-83
2022/12/21 02:17:30;;;;;;;7.65;4.05;;;;;;;7.87;100.00;101014.13;5113172;28;20119;-83
2022/12/21 02:20:05;;;;;;;9.60;4.50;;;;;;;7.86;100.00;101019.28;5113328;28;20388;-84
2022/12/21 02:22:41;;;;;;;9.15;4.38;;;;;;;7.86;100.00;101016.69;5129042;28;20489;-83
2022/12/21 02:25:30;;;;;;;9.68;4.57;;;;;;;7.85;100.00;101015.84;5132570;28;20080;-83
2022/12/21 02:28:20;;;;;;;10.93;4.90;;;;;;;7.85;100.00;101009.78;5133711;28;20084;-83
2022/12/21 02:31:22;;;;;;;9.02;4.30;;;;;;;7.83;100.00;101002.06;5133823;28;20035;-83
2022/12/21 02:34:11;;;;;;;10.13;4.55;;;;;;;7.84;100.00;101011.53;5135004;28;20027;-83
2022/12/21 02:36:39;;;;;;;9.27;4.65;;;;;;;7.83;100.00;101014.09;5133639;28;20106;-83
2022/12/21 02:39:28;;;;;;;8.48;4.20;;;;;;;7.83;100.00;101014.97;5132238;28;20415;-83
2022/12/21 02:45:21;;;;;;;9.23;4.10;;;;;;;7.79;100.00;101009.81;5133060;28;20092;-84
2022/12/21 02:48:13;;;;;;;9.13;4.55;;;;;;;7.78;100.00;101008.09;5132614;28;20023;-83
2022/12/21 02:50:42;;;;;;;10.68;4.70;;;;;;;7.78;100.00;101003.75;5133152;28;20038;-83
2022/12/21 02:53:14;;;;;;;9.85;4.53;;;;;;;7.78;100.00;101014.09;5091865;28;20474;-82
2022/12/21 02:55:39;;;;;;;9.35;4.80;;;;;;;7.78;100.00;101008.09;5125886;28;20460;-83
2022/12/21 02:58:13;;;;;;;9.03;4.23;;;;;;;7.79;100.00;100999.47;5113542;28;20068;-83
2022/12/21 03:01:05;;;;;;;9.68;4.60;;;;;;;7.78;100.00;100997.75;5116209;28;20438;-83
2022/12/21 03:04:00;;;;;;;8.45;4.15;;;;;;;7.79;100.00;101000.31;5115979;28;20464;-83
2022/12/21 03:07:15;;;;;;;9.05;4.45;;;;;;;7.78;100.00;101000.34;5116282;28;20114;-84
2022/12/21 03:09:53;;;;;;;10.80;4.60;;;;;;;7.78;100.00;101003.75;5121768;27;20478;-83
2022/12/21 03:12:24;;;;;;;11.70;5.15;;;;;;;7.79;100.00;101002.06;5136704;27;20023;-84
2022/12/21 03:15:14;;;;;;;11.88;5.35;;;;;;;7.78;100.00;101001.19;5136182;27;20027;-84
2022/12/21 03:17:55;;;;;;;12.77;5.55;;;;;;;7.76;100.00;100987.44;5136679;27;20031;-84
2022/12/21 03:20:29;;;;;;;10.90;5.13;;;;;;;7.77;100.00;100983.09;5136991;27;20076;-83
2022/12/21 03:22:54;;;;;;;11.27;5.00;;;;;;;7.76;100.00;100995.19;5135901;27;20019;-84
2022/12/21 03:25:38;;;;;;;10.17;4.77;;;;;;;7.74;100.00;100999.47;5119975;27;20449;-84
2022/12/21 03:28:12;;;;;;;8.95;4.28;;;;;;;7.73;100.00;100992.59;5115416;28;20068;-85
2022/12/21 03:30:42;;;;;;;10.65;4.70;;;;;;;7.73;100.00;100987.44;5136544;27;20528;-85
2022/12/21 03:33:14;;;;;;;10.52;4.85;;;;;;;7.72;100.00;100986.56;5136376;27;20020;-84
2022/12/21 03:35:54;;;;;;;9.70;4.50;;;;;;;7.72;100.00;100977.94;5136181;27;20489;-84
2022/12/21 03:38:26;;;;;;;11.27;4.82;;;;;;;7.70;100.00;100975.38;5136339;27;20454;-83
2022/12/21 03:40:55;;;;;;;10.63;5.00;;;;;;;7.69;100.00;100980.53;5136510;27;20109;-84
2022/12/21 03:43:25;;;;;;;9.85;4.70;;;;;;;7.68;100.00;100981.38;5135320;27;20039;-84
2022/12/21 03:45:57;;;;;;;9.90;4.50;;;;;;;7.66;100.00;100994.31;5117196;27;20027;-84
2022/12/21 03:48:33;;;;;;;10.02;4.90;;;;;;;7.66;100.00;100998.59;5115439;28;20084;-84
2022/12/21 03:51:04;;;;;;;11.05;4.80;;;;;;;7.66;100.00;100989.16;5115165;28;20028;-84
2022/12/21 03:53:39;;;;;;;12.73;5.80;;;;;;;7.63;100.00;100980.56;5115810;28;20055;-83
2022/12/21 03:56:08;;;;;;;13.82;5.90;;;;;;;7.61;100.00;100983.13;5114841;28;20032;-83
2022/12/21 03:58:35;;;;;;;12.20;5.40;;;;;;;7.62;100.00;100984.00;5115877;28;20380;-83
2022/12/21 04:01:19;;;;;;;10.55;4.97;;;;;;;7.62;100.00;100977.09;5115498;28;20015;-83
2022/12/21 04:03:50;;;;;;;10.25;4.72;;;;;;;7.60;100.00;100975.38;5115024;28;20077;-84
2022/12/21 04:06:20;;;;;;;9.70;4.55;;;;;;;7.60;100.00;100989.13;5114837;28;20020;-84
2022/12/21 04:08:47;;;;;;;9.88;4.50;;;;;;;7.61;100.00;100990.03;5116030;28;20019;-84
2022/12/21 04:13:57;;;;;;;14.95;6.38;;;;;;;7.61;100.00;100982.28;5115714;27;20046;-84
2022/12/21 04:16:22;;;;;;;16.20;6.83;;;;;;;7.58;100.00;100977.97;5116003;28;20027;-84
2022/12/21 04:21:31;;;;;;;19.00;8.57;;;;;;;7.58;100.00;100973.66;5115550;28;20080;-84
2022/12/21 04:29:24;;;;;;;14.93;6.32;;;;;;;7.54;100.00;100978.81;5115122;28;20039;-84
2022/12/21 04:31:49;;;;;;;16.17;6.63;;;;;;;7.54;100.00;100981.41;5114129;28;20020;-83
2022/12/21 04:34:14;;;;;;;18.33;7.78;;;;;;;7.54;100.00;100982.25;5114587;28;20016;-84
2022/12/21 04:39:24;;;;;;;17.90;7.72;;;;;;;7.51;100.00;100984.88;5114198;28;20494;-83
2022/12/21 04:41:49;;;;;;;15.57;6.77;;;;;;;7.50;100.00;100980.56;5114146;28;20053;-84
2022/12/21 04:44:15;;;;;;;15.00;6.60;;;;;;;7.48;100.00;100968.50;5119316;27;20039;-84
2022/12/21 04:46:40;;;;;;;13.05;5.97;;;;;;;7.47;100.00;100972.81;5134366;27;20039;-84
2022/12/21 04:49:05;;;;;;;13.00;6.00;;;;;;;7.46;100.00;100968.50;5135039;27;20023;-84
2022/12/21 04:51:31;;;;;;;12.25;5.43;;;;;;;7.47;100.00;100971.94;5134699;27;20055;-84
2022/12/21 04:53:56;;;;;;;11.80;5.23;;;;;;;7.46;100.00;100970.22;5134627;27;20079;-83
2022/12/21 04:56:21;;;;;;;12.87;5.37;;;;;;;7.46;100.00;100968.50;5134713;27;20440;-83
2022/12/21 04:58:47;;;;;;;11.48;5.00;;;;;;;7.46;100.00;100972.81;5135103;27;20383;-83
2022/12/21 05:01:15;;;;;;;10.10;4.57;;;;;;;7.45;100.00;100973.66;5134016;27;20030;-83
2022/12/21 05:03:40;;;;;;;10.30;4.72;;;;;;;7.45;100.00;100971.94;5120195;27;20031;-85
2022/12/21 05:06:08;;;;;;;8.87;4.20;;;;;;;7.44;100.00;100966.78;5114101;27;20020;-85
2022/12/21 05:08:33;;;;;;;7.75;3.92;;;;;;;7.44;100.00;100962.47;5133396;27;20042;-85
2022/12/21 05:11:11;;;;;;;9.43;4.53;;;;;;;7.44;100.00;100961.63;5134682;27;20020;-84
2022/12/21 05:13:37;;;;;;;7.60;3.90;;;;;;;7.43;100.00;100955.56;5134095;27;20023;-84
2022/12/21 05:16:04;;;;;;;8.30;4.20;;;;;;;7.43;100.00;100963.31;5114030;27;20027;-85
2022/12/21 05:18:30;;;;;;;7.57;3.83;;;;;;;7.44;100.00;100970.22;5113903;28;20020;-85
2022/12/21 05:20:55;;;;;;;7.17;3.57;;;;;;;7.42;100.00;100975.38;5112645;28;20414;-84
2022/12/21 05:23:20;;;;;;;6.45;3.53;;;;;;;7.41;100.00;100968.50;5113757;28;20077;-85
2022/12/21 05:25:45;;;;;;;5.70;3.23;;;;;;;7.39;100.00;100975.38;5123456;27;20055;-84
2022/12/21 05:28:11;;;;;;;6.13;3.20;;;;;;;7.39;100.00;100964.19;5133460;27;20027;-85
2022/12/21 05:30:36;;;;;;;5.45;3.13;;;;;;;7.37;100.00;100965.91;5118502;27;20028;-84
2022/12/21 05:33:01;;;;;;;6.55;3.30;;;;;;;7.37;100.00;100960.75;5114009;28;20045;-84
2022/12/21 05:35:27;;;;;;;5.60;3.10;;;;;;;7.35;100.00;100959.88;5112634;28;20111;-84
2022/12/21 05:37:52;;;;;;;6.77;3.40;;;;;;;7.33;100.00;100946.13;5113946;28;20019;-84
2022/12/21 05:40:17;;;;;;;5.45;3.10;;;;;;;7.33;100.00;100949.56;5113717;28;20027;-84
2022/12/21 05:42:55;;;;;;;6.27;3.43;;;;;;;7.33;100.00;100959.91;5112847;28;20044;-85
2022/12/21 05:45:20;;;;;;;7.25;3.47;;;;;;;7.33;100.00;100959.91;5127079;27;20056;-84
2022/12/21 05:47:46;;;;;;;8.07;3.43;;;;;;;7.33;100.00;100965.06;5134239;27;20023;-84
2022/12/21 05:50:13;;;;;;;8.35;3.85;;;;;;;7.30;100.00;100954.72;5129523;27;20027;-84
2022/12/21 05:52:38;;;;;;;7.13;3.47;;;;;;;7.32;100.00;100954.75;5134114;27;20057;-84
2022/12/21 05:55:04;;;;;;;5.50;3.10;;;;;;;7.33;100.00;100959.03;5133819;27;20028;-84
2022/12/21 05:57:30;;;;;;;6.13;3.42;;;;;;;7.30;100.00;100959.03;5133393;27;20035;-85
2022/12/21 05:59:55;;;;;;;6.05;3.28;;;;;;;7.25;100.00;100949.56;5134154;27;20029;-84
2022/12/21 06:02:20;;;;;;;7.25;3.50;;;;;;;7.25;100.00;100954.72;5132734;27;20027;-83
2022/12/21 06:04:46;;;;;;;6.20;3.50;;;;;;;7.23;100.00;100948.69;5133353;27;20068;-84
2022/12/21 06:07:11;;;;;;;6.50;3.50;;;;;;;7.20;100.00;100950.44;5134096;27;20028;-85
2022/12/21 06:09:36;;;;;;;7.57;3.67;;;;;;;7.20;100.00;100940.09;5133136;27;20436;-84
2022/12/21 06:12:02;;;;;;;9.27;4.18;;;;;;;7.19;100.00;100944.41;5133702;28;20060;-84
2022/12/21 06:14:27;;;;;;;8.97;4.03;;;;;;;7.18;100.00;100944.41;5127112;28;20028;-84
2022/12/21 06:16:53;;;;;;;10.05;4.20;;;;;;;7.16;100.00;100944.41;5112368;28;20027;-84
2022/12/21 06:19:18;;;;;;;7.68;3.60;;;;;;;7.14;100.00;100940.97;5112890;28;20110;-84
2022/12/21 06:21:43;;;;;;;6.60;3.53;;;;;;;7.12;100.00;100950.41;5112918;28;20110;-84
2022/12/21 06:24:09;;;;;;;6.32;3.58;;;;;;;7.09;100.00;100945.28;5112141;28;20480;-84
2022/12/21 06:26:34;;;;;;;7.60;4.17;;;;;;;7.11;100.00;100949.56;5113248;28;20027;-85
2022/12/21 06:28:59;;;;;;;11.97;4.77;;;;;;;7.07;100.00;100939.25;5113104;28;20452;-84
2022/12/21 06:31:25;;;;;;;9.40;4.50;;;;;;;7.04;100.00;100944.41;5112232;28;20106;-84
2022/12/21 06:33:50;;;;;;;8.50;4.30;;;;;;;7.03;100.00;100946.13;5117296;28;20020;-85
2022/12/21 06:36:16;;;;;;;10.57;4.50;;;;;;;7.02;100.00;100948.69;5117168;28;20019;-84
2022/12/21 06:38:41;;;;;;;7.73;4.00;;;;;;;7.01;100.00;100949.53;5116229;28;20349;-84
2022/12/21 06:41:09;;;;;;;7.60;3.77;;;;;;;7.00;100.00;100950.41;5122765;27;20052;-84
2022/12/21 06:43:36;;;;;;;6.32;3.38;;;;;;;6.97;100.00;100942.69;5116896;28;20120;-84
2022/12/21 06:46:04;;;;;;;6.72;3.30;;;;;;;6.94;100.00;100938.34;5116083;28;20027;-84
2022/12/21 06:48:31;;;;;;;5.97;3.00;;;;;;;6.92;100.00;100945.25;5117150;28;20051;-84
2022/12/21 06:50:58;;;;;;;3.75;2.60;;;;;;;6.91;100.00;100946.97;5117071;28;20020;-84
2022/12/21 06:53:27;;;;;;;5.80;3.10;;;;;;;6.89;100.00;100946.09;5115787;28;20031;-84
2022/12/21 06:56:07;;;;;;;5.95;3.13;;;;;;;6.88;100.00;100956.41;5116286;28;20020;-85
2022/12/21 06:58:33;;;;;;;4.13;2.70;;;;;;;6.88;100.00;100962.44;5116859;28;20540;-84
2022/12/21 07:01:05;;;;;;;3.88;2.50;;;;;;;6.87;100.00;100965.00;5116275;28;20020;-84
2022/12/21 07:03:32;;;;;;;3.45;2.30;;;;;;;6.84;100.00;100973.63;5117021;28;20124;-84
2022/12/21 07:05:57;;;;;;;4.00;2.30;;;;;;;6.84;100.00;100978.78;5116166;28;20743;-84
2022/12/21 07:08:22;;;;;;;5.43;2.80;;;;;;;6.83;100.00;100966.72;5116449;28;20034;-85
2022/12/21 07:10:48;;;;;;;5.03;2.70;;;;;;;6.83;100.00;100978.75;5124302;27;20088;-84
2022/12/21 07:13:13;;;;;;;4.47;2.65;;;;;;;6.82;100.00;100975.31;5136451;27;20023;-84
2022/12/21 07:15:38;;;;;;;4.30;2.47;;;;;;;6.80;100.00;100970.16;5130806;27;20031;-83
2022/12/21 07:18:04;;;;;;;2.90;2.30;;;;;;;6.80;100.00;100970.16;5132393;27;20027;-84
2022/12/21 07:20:29;;;;;;;4.10;2.60;;;;;;;6.81;100.00;100976.19;5116179;28;20541;-84
2022/12/21 07:22:55;;;;;;;5.05;2.63;;;;;;;6.80;100.00;100970.16;5116751;28;20020;-84
2022/12/21 07:25:20;;;;;;;4.90;2.60;;;;;;;6.75;100.00;100974.44;5116951;28;20363;-84
2022/12/21 07:27:45;;;;;;;4.13;2.60;;;;;;;6.73;100.00;100976.16;5115593;28;20058;-81
2022/12/21 07:30:11;;;;;;;6.10;2.67;;;;;;;6.71;100.00;100979.59;5116084;28;20040;-81
2022/12/21 07:32:37;;;;;;;4.20;2.40;;;;;;;6.69;100.00;100978.72;5115989;28;20543;-82
2022/12/21 07:35:02;;;;;;;4.05;2.20;;;;;;;6.65;100.00;100983.88;5115397;28;20114;-81
2022/12/21 07:37:28;;;;;;;3.17;2.30;;;;;;;6.60;100.00;100977.84;5116130;28;20038;-81
2022/12/21 07:39:53;;;;;;;2.83;2.03;;;;;;;6.58;100.00;100994.19;5116175;28;20015;-82
2022/12/21 07:42:18;;;;;;;2.20;2.00;;;;;;;6.57;100.00;100998.47;5135547;27;20487;-82
2022/12/21 07:44:44;;;;;;;2.42;1.92;;;;;;;6.56;100.00;101006.19;5135568;27;20020;-82
2022/12/21 07:47:09;;;;;;;3.78;2.00;;;;;;;6.56;100.00;101016.50;5136117;27;20031;-81
2022/12/21 07:49:34;;;;;;;3.40;2.10;;;;;;;6.55;100.00;101020.78;5135736;27;20023;-82
2022/12/21 07:52:00;;;;;;;2.17;1.90;;;;;;;6.54;100.00;101024.22;5136033;27;20065;-82
2022/12/21 07:54:25;;;;;;;2.17;1.67;;;;;;;6.54;100.00;101033.69;5136062;27;20111;-81
2022/12/21 07:56:51;;;;;;;1.90;1.70;;;;;;;6.53;100.00;101031.97;5135453;27;20075;-81
2022/12/21 07:59:16;;;;;;;3.05;1.90;;;;;;;6.52;100.00;101031.13;5135758;27;20022;-82
2022/12/21 08:01:41;;;;;;;2.40;1.90;;;;;;;6.52;100.00;101037.97;5135781;27;20128;-81
2022/12/21 08:04:07;;;;;;;3.00;1.87;;;;;;;6.51;100.00;101028.50;5134888;27;20035;-81
2022/12/21 08:06:33;;;;;;;2.85;2.08;;;;;;;6.48;100.00;101027.63;5136263;27;20027;-81
2022/12/21 08:08:59;;;;;;;3.47;2.08;;;;;;;6.48;100.00;101031.94;5135420;27;20379;-81
2022/12/21 08:11:24;;;;;;;3.28;2.20;;;;;;;6.45;100.00;101037.06;5133478;27;20035;-81
2022/12/21 08:13:50;;;;;;;3.00;2.00;;;;;;;6.44;100.00;101023.34;5135281;27;20038;-82
2022/12/21 08:16:17;;;;;;;3.83;2.20;;;;;;;6.44;100.00;101013.03;5134888;27;20023;-81
2022/12/21 08:18:42;;;;;;;3.35;2.33;;;;;;;6.45;100.00;101022.50;5135684;27;20475;-81
2022/12/21 08:21:08;;;;;;;3.37;2.07;;;;;;;6.46;100.00;101024.22;5135597;27;20023;-81
2022/12/21 08:23:33;;;;;;;4.35;2.35;;;;;;;6.46;100.00;101031.94;5134831;27;20015;-81
2022/12/21 08:26:03;;;;;;;2.95;1.90;;;;;;;6.47;100.00;101038.81;5135483;27;20030;-82
2022/12/21 08:28:29;;;;;;;3.20;1.88;;;;;;;6.47;100.00;101043.97;5120825;27;20126;-81
2022/12/21 08:31:07;;;;;;;2.37;2.00;;;;;;;6.46;100.00;101037.09;5114525;28;20107;-81
2022/12/21 08:33:33;;;;;;;3.53;1.92;;;;;;;6.49;100.00;101031.94;5114596;28;20047;-81
2022/12/21 08:35:58;;;;;;;2.00;1.70;;;;;;;6.52;100.00;101027.66;5114711;28;20047;-83
2022/12/21 08:38:23;;;;;;;2.63;2.00;;;;;;;6.52;100.00;101023.38;5113825;28;20030;-82
2022/12/21 08:40:49;;;;;;;2.80;2.17;;;;;;;6.55;100.00;101019.94;5122719;27;20027;-82
2022/12/21 08:43:14;;;;;;;3.13;2.00;;;;;;;6.57;100.00;101026.81;5134836;27;20047;-83
2022/12/21 08:45:40;;;;;;;3.65;2.42;;;;;;;6.59;100.00;101027.69;5129963;27;20019;-82
2022/12/21 08:48:05;;;;;;;3.35;2.25;;;;;;;6.61;100.00;101025.13;5114231;28;20413;-83
2022/12/21 08:50:31;;;;;;;3.20;2.20;;;;;;;6.65;100.00;101027.72;5114623;28;20068;-83
2022/12/21 08:52:57;;;;;;;3.43;2.30;;;;;;;6.68;100.00;101031.16;5113884;28;20016;-82
2022/12/21 08:55:22;;;;;;;4.50;2.50;;;;;;;6.70;100.00;101040.63;5113267;28;20031;-83
2022/12/21 08:57:48;;;;;;;4.72;2.47;;;;;;;6.72;100.00;101035.50;5114653;28;20027;-83
2022/12/21 09:00:13;;;;;;;4.60;2.77;;;;;;;6.75;100.00;101033.78;5113667;28;20031;-82
2022/12/21 09:02:38;;;;;;;5.90;3.00;;;;;;;6.74;100.00;101037.22;5114546;28;20053;-84
2022/12/21 09:05:04;;;;;;;6.10;3.03;;;;;;;6.74;100.00;101036.38;5114271;28;20115;-86
2022/12/21 09:07:30;;;;;;;5.65;3.08;;;;;;;6.78;100.00;101043.22;5114277;28;20020;-86
2022/12/21 09:10:05;;;;;;;4.53;2.53;;;;;;;6.78;100.00;101038.94;5114475;28;20107;-86
2022/12/21 09:12:30;;;;;;;9.25;4.00;;;;;;;6.80;100.00;101042.41;5114404;28;20045;-86
2022/12/21 09:14:55;;;;;;;10.07;4.43;;;;;;;6.80;100.00;101034.66;5114749;28;20498;-86
2022/12/21 09:17:21;;;;;;;7.82;3.88;;;;;;;6.85;100.00;101024.34;5113821;28;20467;-87
2022/12/21 09:19:46;;;;;;;8.03;3.60;;;;;;;6.87;100.00;101014.88;5114054;28;20519;-86
2022/12/21 09:22:12;;;;;;;6.70;3.30;;;;;;;6.93;100.00;101016.63;5113638;28;20054;-86
2022/12/21 09:24:40;;;;;;;5.45;3.03;;;;;;;6.94;100.00;101008.03;5114196;28;20020;-86
2022/12/21 09:27:05;;;;;;;4.47;2.90;;;;;;;7.01;100.00;101016.63;5113219;28;20032;-86
2022/12/21 09:29:31;;;;;;;5.67;3.40;;;;;;;7.02;100.00;101020.94;5108221;28;20024;-86
2022/12/21 09:31:57;;;;;;;5.90;3.03;;;;;;;7.04;100.00;101030.41;5112960;28;20047;-86
2022/12/21 09:34:22;;;;;;;12.55;5.15;;;;;;;7.06;100.00;101027.84;5112492;28;20030;-86
2022/12/21 09:37:07;;;;;;;11.30;5.10;;;;;;;7.07;100.00;101033.00;5113427;28;20031;-86
2022/12/21 09:39:33;;;;;;;9.00;4.50;;;;;;;7.09;100.00;101030.44;5112895;28;20067;-87
2022/12/21 09:42:31;;;;;;;10.00;4.43;;;;;;;7.11;100.00;101034.75;5129295;27;20075;-86
2022/12/21 09:45:11;;;;;;;8.95;4.00;;;;;;;7.13;100.00;101039.91;5133099;27;20110;-86
2022/12/21 09:47:53;;;;;;;8.75;4.28;;;;;;;7.13;100.00;101032.16;5133380;27;20119;-86
2022/12/21 09:50:23;;;;;;;7.90;3.97;;;;;;;7.14;100.00;101041.63;5134298;27;20042;-86
2022/12/21 09:52:57;;;;;;;9.48;3.95;;;;;;;7.18;100.00;101050.22;5133867;27;20027;-86
2022/12/21 09:55:25;;;;;;;9.02;4.47;;;;;;;7.19;100.00;101049.38;5133548;27;20388;-86
2022/12/21 09:57:52;;;;;;;12.70;5.45;;;;;;;7.20;100.00;101045.94;5134212;27;20027;-86
2022/12/21 10:00:22;;;;;;;10.60;4.65;;;;;;;7.24;100.00;101038.19;5133977;27;20474;-86
2022/12/21 10:02:56;;;;;;;8.52;4.22;;;;;;;7.30;100.00;101052.00;5133777;27;20047;-86
2022/12/21 10:05:51;;;;;;;8.75;4.20;;;;;;;7.33;100.00;101041.66;5130193;27;20904;-86
2022/12/21 10:08:31;;;;;;;9.93;4.70;;;;;;;7.38;100.00;101048.53;5123546;27;20215;-86
2022/12/21 10:11:19;;;;;;;9.40;4.13;;;;;;;7.42;100.00;101045.09;5134155;27;20471;-86
2022/12/21 10:13:47;;;;;;;10.38;4.80;;;;;;;7.46;100.00;101050.28;5133852;28;20029;-86
2022/12/21 10:16:43;;;;;;;10.48;4.78;;;;;;;7.48;100.00;101043.41;5133223;28;20019;-86
2022/12/21 10:19:27;;;;;;;8.35;4.30;;;;;;;7.50;100.00;101044.25;5133676;28;20102;-86
2022/12/21 10:22:13;;;;;;;11.90;5.10;;;;;;;7.51;100.00;101046.84;5093448;28;20043;-86
2022/12/21 10:24:45;;;;;;;12.18;5.07;;;;;;;7.51;100.00;101064.94;5092487;28;20047;-87
2022/12/21 10:27:21;;;;;;;11.50;4.93;;;;;;;7.51;100.00;101049.44;5092838;28;20118;-86
2022/12/21 10:29:51;;;;;;;13.50;5.72;;;;;;;7.51;100.00;101043.38;5092702;28;20392;-86
2022/12/21 10:32:16;;;;;;;12.52;5.63;;;;;;;7.51;100.00;101048.56;5092742;28;20024;-86
2022/12/21 10:34:47;;;;;;;15.17;6.00;;;;;;;7.50;100.00;101044.25;5108363;28;20387;-86
2022/12/21 10:37:18;;;;;;;13.38;5.65;;;;;;;7.50;100.00;101042.53;5095468;28;20031;-86
2022/12/21 10:39:45;;;;;;;14.57;6.38;;;;;;;7.52;100.00;101030.50;5119300;28;20020;-87
2022/12/21 10:42:16;;;;;;;14.85;5.75;;;;;;;7.52;100.00;101027.03;5112172;28;20466;-87
2022/12/21 10:44:42;;;;;;;15.25;6.45;;;;;;;7.51;100.00;101028.75;5111175;28;20024;-86
2022/12/21 10:47:13;;;;;;;13.83;5.60;;;;;;;7.53;100.00;101015.84;5112318;28;20030;-86
2022/12/21 10:49:40;;;;;;;17.50;7.10;;;;;;;7.54;100.00;101026.16;5113148;28;20030;-86
2022/12/21 10:52:44;;;;;;;15.52;6.50;;;;;;;7.55;100.00;101014.97;5113048;28;20016;-87
2022/12/21 10:55:18;;;;;;;14.85;6.30;;;;;;;7.57;100.00;101008.09;5113097;28;20468;-87
2022/12/21 10:58:04;;;;;;;13.88;6.18;;;;;;;7.59;100.00;101010.69;5115595;28;20035;-83
2022/12/21 11:00:33;;;;;;;12.52;5.60;;;;;;;7.58;100.00;101006.38;5113024;28;20033;-86
2022/12/21 11:03:25;;;;;;;14.10;5.55;;;;;;;7.61;100.00;101001.19;5113206;28;20027;-86
2022/12/21 11:05:51;;;;;;;14.52;5.80;;;;;;;7.61;100.00;100998.63;5097565;28;20101;-85
2022/12/21 11:08:22;;;;;;;15.83;6.10;;;;;;;7.60;100.00;100999.47;5123263;28;20459;-85
2022/12/21 11:10:53;;;;;;;12.18;5.40;;;;;;;7.60;100.00;101001.22;5133425;28;20102;-85
2022/12/21 11:13:21;;;;;;;9.85;4.90;;;;;;;7.61;100.00;101006.38;5127554;28;20023;-86
2022/12/21 11:16:00;;;;;;;14.52;5.53;;;;;;;7.59;100.00;100997.78;5133540;28;20059;-86
2022/12/21 11:18:43;;;;;;;15.13;6.55;;;;;;;7.59;100.00;101000.38;5133683;27;20096;-85
2022/12/21 11:21:30;;;;;;;16.42;6.55;;;;;;;7.58;100.00;100996.06;5136394;27;20061;-85
2022/12/21 11:23:59;;;;;;;13.13;5.95;;;;;;;7.58;100.00;101007.22;5121685;27;20023;-86
2022/12/21 11:26:28;;;;;;;11.90;5.65;;;;;;;7.58;100.00;101001.22;5120930;27;20026;-86
2022/12/21 11:29:03;;;;;;;12.98;5.60;;;;;;;7.60;100.00;101002.06;5125009;27;20378;-85
2022/12/21 11:31:30;;;;;;;12.90;5.40;;;;;;;7.61;100.00;101008.09;5129489;27;20380;-85
2022/12/21 11:33:55;;;;;;;16.92;6.80;;;;;;;7.63;100.00;101003.81;5115813;28;20368;-86
2022/12/21 11:36:21;;;;;;;11.57;5.33;;;;;;;7.65;100.00;101007.25;5116500;27;20016;-86
2022/12/21 11:38:46;;;;;;;12.05;5.70;;;;;;;7.65;100.00;101002.94;5115118;27;20125;-85
2022/12/21 11:41:21;;;;;;;14.27;6.63;;;;;;;7.66;100.00;101002.06;5115541;28;20375;-85
2022/12/21 11:43:49;;;;;;;16.75;7.63;;;;;;;7.64;100.00;100995.19;5115726;28;20056;-85
2022/12/21 11:46:35;;;;;;;16.63;7.35;;;;;;;7.67;100.00;101000.34;5115738;28;20023;-85
2022/12/21 11:49:20;;;;;;;14.75;6.90;;;;;;;7.70;100.00;100992.59;5115479;28;20047;-85
2022/12/21 11:52:09;;;;;;;13.85;5.97;;;;;;;7.70;100.00;100984.84;5116100;28;20024;-85